createdAt,value
2022-08-26T00:01:57.604Z,2.10
2022-08-26T00:04:26.418Z,2.33
2022-08-26T00:06:54.962Z,2.22
2022-08-26T00:09:24.745Z,1.80
2022-08-26T00:11:53.375Z,2.13
2022-08-26T00:14:21.699Z,2.30
2022-08-26T00:16:49.753Z,1.88
2022-08-26T00:19:20.434Z,1.85
2022-08-26T00:21:50.056Z,2.30
2022-08-26T00:24:17.950Z,2.47
2022-08-26T00:26:45.942Z,2.10
2022-08-26T00:29:14.882Z,3.00
2022-08-26T00:31:45.062Z,2.35
2022-08-26T00:34:14.119Z,2.77
2022-08-26T00:36:45.002Z,2.10
2022-08-26T00:39:12.803Z,2.35
2022-08-26T00:41:41.963Z,1.70
2022-08-26T00:44:11.324Z,1.73
2022-08-26T00:46:46.490Z,1.92
2022-08-26T00:49:17.885Z,2.40
2022-08-26T00:51:53.121Z,2.08
2022-08-26T00:54:23.960Z,1.60
2022-08-26T00:57:00.101Z,1.83
2022-08-26T00:59:32.849Z,1.80
2022-08-26T01:02:02.822Z,1.80
2022-08-26T01:04:33.881Z,1.85
2022-08-26T01:07:03.540Z,1.90
2022-08-26T01:09:32.444Z,1.42
2022-08-26T01:12:03.943Z,2.03
2022-08-26T01:14:36.741Z,1.23
2022-08-26T01:17:07.223Z,1.58
2022-08-26T01:19:39.720Z,2.05
2022-08-26T01:22:12.635Z,1.92
2022-08-26T01:24:42.642Z,1.52
2022-08-26T01:27:14.344Z,1.80
2022-08-26T01:29:45.290Z,1.38
2022-08-26T01:32:16.803Z,1.50
2022-08-26T01:34:47.260Z,1.45
2022-08-26T01:37:18.643Z,1.55
2022-08-26T01:39:50.990Z,1.83
2022-08-26T01:42:22.029Z,1.83
2022-08-26T01:44:54.739Z,1.42
2022-08-26T01:47:27.090Z,1.50
2022-08-26T01:50:00.650Z,1.45
2022-08-26T01:52:31.310Z,1.52
2022-08-26T01:55:01.716Z,1.40
2022-08-26T01:57:30.283Z,1.40
2022-08-26T02:00:01.782Z,1.40
2022-08-26T02:02:30.165Z,1.63
2022-08-26T02:05:02.359Z,1.67
2022-08-26T02:07:31.256Z,1.50
2022-08-26T02:10:02.492Z,1.52
2022-08-26T02:12:32.258Z,1.75
2022-08-26T02:15:05.662Z,1.70
2022-08-26T02:17:38.615Z,1.58
2022-08-26T02:20:13.190Z,1.70
2022-08-26T02:22:45.207Z,1.60
2022-08-26T02:25:20.680Z,1.70
2022-08-26T02:27:48.958Z,1.30
2022-08-26T02:30:20.584Z,1.40
2022-08-26T02:32:49.455Z,1.30
2022-08-26T02:35:20.337Z,1.40
2022-08-26T02:37:49.526Z,1.40
2022-08-26T02:40:22.438Z,1.40
2022-08-26T02:42:52.823Z,1.45
2022-08-26T02:45:24.269Z,1.50
2022-08-26T02:47:53.035Z,1.40
2022-08-26T02:50:22.518Z,1.10
2022-08-26T02:52:50.359Z,1.25
2022-08-26T02:55:19.769Z,1.35
2022-08-26T02:57:48.238Z,1.30
2022-08-26T03:00:17.622Z,1.60
2022-08-26T03:02:46.083Z,1.25
2022-08-26T03:05:15.411Z,1.27
2022-08-26T03:07:43.742Z,1.45
2022-08-26T03:10:13.462Z,1.20
2022-08-26T03:12:45.273Z,1.23
2022-08-26T03:15:17.879Z,1.40
2022-08-26T03:17:46.629Z,1.25
2022-08-26T03:20:15.726Z,1.08
2022-08-26T03:22:46.184Z,1.40
2022-08-26T03:25:16.431Z,1.52
2022-08-26T03:27:45.852Z,1.27
2022-08-26T03:30:32.903Z,1.55
2022-08-26T03:33:01.023Z,1.35
2022-08-26T03:35:29.279Z,1.38
2022-08-26T03:37:57.209Z,1.10
2022-08-26T03:40:29.193Z,1.20
2022-08-26T03:42:59.016Z,1.20
2022-08-26T03:45:28.412Z,1.15
2022-08-26T03:47:57.872Z,1.10
2022-08-26T03:50:27.054Z,1.08
2022-08-26T03:52:56.538Z,1.23
2022-08-26T03:55:27.022Z,1.05
2022-08-26T03:57:55.809Z,1.10
2022-08-26T04:00:25.510Z,1.20
2022-08-26T04:02:53.590Z,1.10
2022-08-26T04:05:23.141Z,1.08
2022-08-26T04:07:51.992Z,1.00
2022-08-26T04:10:28.655Z,1.40
2022-08-26T04:12:58.946Z,1.20
2022-08-26T04:15:30.192Z,1.00
2022-08-26T04:17:58.228Z,1.13
2022-08-26T04:20:26.448Z,1.20
2022-08-26T04:22:54.687Z,1.13
2022-08-26T04:25:22.688Z,1.00
2022-08-26T04:27:52.363Z,1.20
2022-08-26T04:30:21.122Z,1.00
2022-08-26T04:32:50.508Z,0.90
2022-08-26T04:35:20.927Z,1.40
2022-08-26T04:37:53.681Z,1.63
2022-08-26T04:40:21.606Z,1.35
2022-08-26T04:42:50.223Z,1.05
2022-08-26T04:45:19.006Z,1.23
2022-08-26T04:47:56.175Z,1.60
2022-08-26T04:50:25.682Z,1.10
2022-08-26T04:52:54.980Z,1.17
2022-08-26T04:55:29.023Z,1.15
2022-08-26T04:58:10.150Z,1.33
2022-08-26T05:00:38.991Z,1.10
2022-08-26T05:03:10.524Z,0.98
2022-08-26T05:05:40.130Z,1.00
2022-08-26T05:08:08.433Z,1.10
2022-08-26T05:10:41.197Z,1.05
2022-08-26T05:13:11.175Z,0.95
2022-08-26T05:15:39.745Z,1.10
2022-08-26T05:18:11.132Z,1.02
2022-08-26T05:20:41.279Z,1.33
2022-08-26T05:23:09.779Z,1.20
2022-08-26T05:25:39.524Z,1.48
2022-08-26T05:28:07.693Z,1.02
2022-08-26T05:30:36.647Z,1.10
2022-08-26T05:33:04.993Z,1.13
2022-08-26T05:35:34.623Z,1.30
2022-08-26T05:38:03.842Z,1.10
2022-08-26T05:40:35.858Z,1.85
2022-08-26T05:43:08.009Z,1.33
2022-08-26T05:45:42.305Z,1.40
2022-08-26T05:48:16.140Z,1.13
2022-08-26T05:50:47.428Z,1.00
2022-08-26T05:53:17.703Z,1.13
2022-08-26T05:55:47.972Z,1.38
2022-08-26T05:58:17.483Z,1.10
2022-08-26T06:00:45.647Z,1.38
2022-08-26T06:03:13.537Z,1.30
2022-08-26T06:05:42.929Z,1.50
2022-08-26T06:08:14.590Z,1.23
2022-08-26T06:10:50.972Z,1.27
2022-08-26T06:13:21.403Z,1.27
2022-08-26T06:15:51.180Z,1.60
2022-08-26T06:18:21.872Z,1.30
2022-08-26T06:20:57.229Z,1.27
2022-08-26T06:23:47.231Z,1.25
2022-08-26T06:26:17.012Z,1.35
2022-08-26T06:28:45.748Z,1.55
2022-08-26T06:31:14.173Z,1.30
2022-08-26T06:33:42.237Z,1.33
2022-08-26T06:36:11.032Z,1.02
2022-08-26T06:38:41.812Z,1.30
2022-08-26T06:41:11.920Z,1.30
2022-08-26T06:43:39.704Z,1.27
2022-08-26T06:46:10.855Z,1.50
2022-08-26T06:48:40.614Z,1.38
2022-08-26T06:51:11.400Z,1.50
2022-08-26T06:53:42.303Z,1.50
2022-08-26T06:56:11.810Z,1.40
2022-08-26T06:58:42.178Z,1.02
2022-08-26T07:01:16.945Z,1.20
2022-08-26T07:03:46.948Z,1.27
2022-08-26T07:06:18.448Z,1.10
2022-08-26T07:08:48.230Z,1.20
2022-08-26T07:11:17.021Z,1.27
2022-08-26T07:13:44.927Z,1.38
2022-08-26T07:16:16.393Z,0.90
2022-08-26T07:18:45.911Z,1.23
2022-08-26T07:21:17.150Z,1.05
2022-08-26T07:23:48.284Z,1.33
2022-08-26T07:26:19.461Z,1.17
2022-08-26T07:28:50.562Z,1.00
2022-08-26T07:31:23.267Z,0.90
2022-08-26T07:33:51.429Z,1.02
2022-08-26T07:36:21.749Z,1.40
2022-08-26T07:38:51.946Z,1.20
2022-08-26T07:41:26.368Z,1.17
2022-08-26T07:43:55.419Z,1.48
2022-08-26T07:46:27.558Z,1.38
2022-08-26T07:48:59.320Z,1.30
2022-08-26T07:51:28.357Z,1.38
2022-08-26T07:53:57.748Z,1.30
2022-08-26T07:56:27.011Z,1.25
2022-08-26T07:58:55.235Z,1.30
2022-08-26T08:01:24.524Z,1.05
2022-08-26T08:03:55.129Z,1.10
2022-08-26T08:06:27.376Z,1.30
2022-08-26T08:08:57.717Z,1.52
2022-08-26T08:11:27.125Z,1.33
2022-08-26T08:13:56.242Z,1.40
2022-08-26T08:16:32.293Z,1.33
2022-08-26T08:19:02.386Z,1.40
2022-08-26T08:21:31.642Z,1.10
2022-08-26T08:24:00.968Z,1.55
2022-08-26T08:26:28.922Z,1.48
2022-08-26T08:28:58.390Z,1.05
2022-08-26T08:31:56.029Z,1.20
2022-08-26T08:34:18.163Z,1.10
2022-08-26T08:36:46.613Z,1.00
2022-08-26T08:39:15.893Z,1.08
2022-08-26T08:42:06.380Z,0.90
2022-08-26T08:44:37.865Z,1.15
2022-08-26T08:47:18.671Z,1.02
2022-08-26T08:49:48.762Z,1.33
2022-08-26T08:52:27.414Z,0.90
2022-08-26T08:54:58.144Z,1.35
2022-08-26T08:57:32.739Z,1.05
2022-08-26T09:00:10.874Z,1.00
2022-08-26T09:02:48.719Z,1.20
2022-08-26T09:05:21.417Z,0.77
2022-08-26T09:07:53.737Z,0.90
2022-08-26T09:10:33.111Z,1.08
2022-08-26T09:13:06.122Z,1.05
2022-08-26T09:15:43.156Z,1.00
2022-08-26T09:18:24.573Z,1.10
2022-08-26T09:20:57.773Z,1.10
2022-08-26T09:23:26.490Z,1.02
2022-08-26T09:25:58.946Z,1.13
2022-08-26T09:28:29.332Z,1.10
2022-08-26T09:31:07.996Z,1.05
2022-08-26T09:33:40.110Z,1.00
2022-08-26T09:36:18.569Z,0.90
2022-08-26T09:38:46.648Z,1.00
2022-08-26T09:41:26.191Z,1.27
2022-08-26T09:44:14.526Z,1.20
2022-08-26T09:46:47.784Z,0.90
2022-08-26T09:49:26.623Z,1.20
2022-08-26T09:52:21.628Z,1.05
2022-08-26T09:55:02.307Z,0.85
2022-08-26T09:57:35.021Z,1.02
2022-08-26T10:00:03.729Z,1.05
2022-08-26T10:02:47.762Z,0.65
2022-08-26T10:05:27.504Z,1.42
2022-08-26T10:07:58.733Z,1.00
2022-08-26T10:10:32.994Z,1.27
2022-08-26T10:13:07.500Z,1.00
2022-08-26T10:15:48.741Z,1.02
2022-08-26T10:18:24.619Z,1.02
2022-08-26T10:20:58.606Z,1.00
2022-08-26T10:23:32.055Z,1.40
2022-08-26T10:26:06.978Z,1.10
2022-08-26T10:28:41.947Z,0.93
2022-08-26T10:31:27.944Z,1.05
2022-08-26T10:34:00.002Z,0.82
2022-08-26T10:37:15.883Z,0.80
2022-08-26T10:39:46.004Z,1.00
2022-08-26T10:42:19.646Z,0.80
2022-08-26T10:44:53.393Z,0.90
2022-08-26T10:47:34.141Z,1.00
2022-08-26T10:50:03.636Z,0.82
2022-08-26T10:52:48.029Z,0.88
2022-08-26T10:55:20.776Z,0.80
2022-08-26T10:57:55.953Z,0.70
2022-08-26T11:00:49.396Z,0.95
2022-08-26T11:03:31.986Z,0.70
2022-08-26T11:06:22.513Z,1.05
2022-08-26T11:08:52.371Z,0.90
2022-08-26T11:11:51.094Z,0.93
2022-08-26T11:14:58.835Z,0.80
2022-08-26T11:17:57.688Z,1.27
2022-08-26T11:20:38.094Z,0.70
2022-08-26T11:23:50.768Z,1.05
2022-08-26T11:26:35.926Z,0.80
2022-08-26T11:29:13.148Z,0.88
2022-08-26T11:31:56.865Z,0.98
2022-08-26T11:34:55.129Z,0.98
2022-08-26T11:37:32.275Z,1.27
2022-08-26T11:40:02.903Z,0.88
2022-08-26T11:42:37.406Z,0.95
2022-08-26T11:45:17.716Z,0.90
2022-08-26T11:47:46.810Z,0.98
2022-08-26T11:50:20.227Z,0.90
2022-08-26T11:52:56.639Z,0.93
2022-08-26T11:55:25.642Z,0.60
2022-08-26T11:57:57.192Z,0.85
2022-08-26T12:00:33.501Z,1.00
2022-08-26T12:03:08.042Z,0.90
2022-08-26T12:05:45.417Z,0.98
2022-08-26T12:08:17.675Z,1.30
2022-08-26T12:10:45.978Z,1.05
2022-08-26T12:13:21.958Z,0.80
2022-08-26T12:15:55.798Z,1.33
2022-08-26T12:18:29.421Z,0.82
2022-08-26T12:21:02.305Z,0.98
2022-08-26T12:23:41.136Z,1.00
2022-08-26T12:26:11.911Z,0.95
2022-08-26T12:28:44.997Z,0.98
2022-08-26T12:31:20.236Z,1.50
2022-08-26T12:33:49.767Z,0.88
2022-08-26T12:36:28.619Z,0.90
2022-08-26T12:38:58.604Z,1.17
2022-08-26T12:41:57.184Z,0.70
2022-08-26T12:44:54.171Z,1.15
2022-08-26T12:47:32.697Z,0.90
2022-08-26T12:50:18.560Z,1.08
2022-08-26T12:52:58.453Z,0.80
2022-08-26T12:55:36.289Z,0.90
2022-08-26T12:58:23.569Z,0.82
2022-08-26T13:00:52.999Z,1.15
2022-08-26T13:03:43.171Z,1.08
2022-08-26T13:06:16.101Z,1.15
2022-08-26T13:08:46.957Z,0.60
2022-08-26T13:11:20.570Z,0.80
2022-08-26T13:13:50.463Z,0.80
2022-08-26T13:16:19.491Z,0.98
2022-08-26T13:18:49.128Z,1.10
2022-08-26T13:21:20.594Z,1.05
2022-08-26T13:23:50.561Z,0.90
2022-08-26T13:26:18.861Z,0.88
2022-08-26T13:28:53.286Z,0.63
2022-08-26T13:31:32.414Z,0.68
2022-08-26T13:34:01.520Z,0.70
2022-08-26T13:36:29.699Z,0.88
2022-08-26T13:38:59.014Z,1.00
2022-08-26T13:41:29.272Z,0.95
2022-08-26T13:43:58.768Z,0.80
2022-08-26T13:46:28.253Z,0.82
2022-08-26T13:48:56.750Z,1.00
2022-08-26T13:51:26.092Z,0.98
2022-08-26T13:53:54.344Z,1.05
2022-08-26T13:56:23.903Z,0.80
2022-08-26T13:58:52.101Z,1.00
2022-08-26T14:01:21.319Z,1.10
2022-08-26T14:03:49.386Z,0.95
2022-08-26T14:06:17.611Z,1.23
2022-08-26T14:08:45.669Z,0.95
2022-08-26T14:11:13.691Z,0.90
2022-08-26T14:13:42.980Z,0.95
2022-08-26T14:16:16.333Z,0.93
2022-08-26T14:18:50.053Z,0.80
2022-08-26T14:21:19.210Z,1.20
2022-08-26T14:23:47.141Z,1.20
2022-08-26T14:26:26.596Z,1.08
2022-08-26T14:28:58.708Z,0.90
2022-08-26T14:31:28.966Z,1.10
2022-08-26T14:33:58.504Z,0.80
2022-08-26T14:36:29.129Z,1.00
2022-08-26T14:38:58.149Z,1.05
2022-08-26T14:41:27.022Z,1.40
2022-08-26T14:44:00.146Z,1.17
2022-08-26T14:46:30.154Z,0.90
2022-08-26T14:49:00.969Z,0.80
2022-08-26T14:51:30.021Z,1.00
2022-08-26T14:54:11.818Z,0.73
2022-08-26T14:56:43.391Z,0.90
2022-08-26T14:59:13.532Z,1.05
2022-08-26T15:01:41.502Z,1.10
2022-08-26T15:04:09.564Z,1.35
2022-08-26T15:06:38.233Z,0.95
2022-08-26T15:09:06.372Z,0.80
2022-08-26T15:11:34.455Z,0.93
2022-08-26T15:14:02.601Z,1.10
2022-08-26T15:16:32.383Z,1.13
2022-08-26T15:19:03.960Z,0.93
2022-08-26T15:21:32.216Z,1.30
2022-08-26T15:24:00.824Z,1.20
2022-08-26T15:26:29.785Z,1.00
2022-08-26T15:29:01.850Z,1.10
2022-08-26T15:31:34.472Z,1.38
2022-08-26T15:34:05.619Z,1.38
2022-08-26T15:36:34.543Z,0.93
2022-08-26T15:39:02.588Z,1.17
2022-08-26T15:41:30.528Z,1.98
2022-08-26T15:44:03.783Z,1.13
2022-08-26T15:46:33.611Z,1.35
2022-08-26T15:49:01.647Z,1.33
2022-08-26T15:51:31.907Z,1.23
2022-08-26T15:54:00.396Z,1.00
2022-08-26T15:56:30.903Z,1.20
2022-08-26T15:58:59.067Z,1.30
2022-08-26T16:01:28.867Z,1.10
2022-08-26T16:03:58.553Z,1.60
2022-08-26T16:06:29.152Z,1.42
2022-08-26T16:08:57.630Z,1.67
2022-08-26T16:11:25.980Z,1.38
2022-08-26T16:13:53.967Z,1.45
2022-08-26T16:16:22.086Z,1.30
2022-08-26T16:18:50.255Z,1.23
2022-08-26T16:21:21.854Z,1.50
2022-08-26T16:23:49.755Z,0.88
2022-08-26T16:26:19.658Z,1.13
2022-08-26T16:28:48.590Z,1.30
2022-08-26T16:31:16.974Z,1.35
2022-08-26T16:33:45.417Z,1.08
2022-08-26T16:36:13.934Z,1.23
2022-08-26T16:38:47.644Z,1.30
2022-08-26T16:41:15.876Z,1.10
2022-08-26T16:43:43.737Z,1.33
2022-08-26T16:46:13.977Z,1.30
2022-08-26T16:48:42.095Z,1.20
2022-08-26T16:51:13.279Z,1.20
2022-08-26T16:53:41.069Z,1.30
2022-08-26T16:56:13.773Z,1.20
2022-08-26T16:58:41.799Z,1.35
2022-08-26T17:01:09.974Z,1.15
2022-08-26T17:03:37.890Z,1.00
2022-08-26T17:06:06.443Z,1.42
2022-08-26T17:08:34.679Z,1.20
2022-08-26T17:11:02.628Z,1.20
2022-08-26T17:13:35.348Z,1.38
2022-08-26T17:16:05.235Z,1.42
2022-08-26T17:18:33.796Z,1.15
2022-08-26T17:21:03.005Z,1.23
2022-08-26T17:23:31.303Z,1.10
2022-08-26T17:25:59.410Z,1.63
2022-08-26T17:28:27.247Z,1.30
2022-08-26T17:30:58.149Z,1.30
2022-08-26T17:33:26.935Z,1.40
2022-08-26T17:35:55.111Z,0.93
2022-08-26T17:38:23.233Z,1.33
2022-08-26T17:40:51.624Z,1.27
2022-08-26T17:43:19.824Z,1.50
2022-08-26T17:45:48.144Z,1.08
2022-08-26T17:48:17.796Z,1.40
2022-08-26T17:50:49.317Z,1.30
2022-08-26T17:53:19.131Z,1.27
2022-08-26T17:55:48.150Z,1.40
2022-08-26T17:58:16.305Z,1.30
2022-08-26T18:00:46.140Z,1.42
2022-08-26T18:03:14.429Z,1.23
2022-08-26T18:05:47.459Z,1.20
2022-08-26T18:08:15.324Z,1.40
2022-08-26T18:10:44.203Z,1.40
2022-08-26T18:13:12.139Z,1.13
2022-08-26T18:15:40.094Z,1.40
2022-08-26T18:18:08.429Z,1.38
2022-08-26T18:20:39.130Z,1.40
2022-08-26T18:23:08.458Z,1.60
2022-08-26T18:25:40.401Z,1.35
2022-08-26T18:28:08.254Z,1.52
2022-08-26T18:30:36.306Z,1.65
2022-08-26T18:33:04.496Z,1.65
2022-08-26T18:35:32.362Z,1.67
2022-08-26T18:38:10.616Z,1.65
2022-08-26T18:40:42.130Z,1.38
2022-08-26T18:43:10.649Z,1.35
2022-08-26T18:45:38.775Z,1.60
2022-08-26T18:48:07.005Z,1.58
2022-08-26T18:50:38.193Z,1.80
2022-08-26T18:53:06.167Z,1.50
2022-08-26T18:55:34.243Z,1.60
2022-08-26T18:58:03.626Z,1.90
2022-08-26T19:00:32.234Z,1.73
2022-08-26T19:03:00.231Z,1.80
2022-08-26T19:05:28.770Z,1.50
2022-08-26T19:07:56.770Z,1.48
2022-08-26T19:10:27.450Z,1.30
2022-08-26T19:12:57.468Z,1.92
2022-08-26T19:15:29.761Z,1.42
2022-08-26T19:17:57.574Z,1.20
2022-08-26T19:20:25.731Z,1.60
2022-08-26T19:22:53.624Z,1.60
2022-08-26T19:25:21.426Z,1.60
2022-08-26T19:27:49.251Z,1.63
2022-08-26T19:30:17.127Z,1.38
2022-08-26T19:32:46.697Z,1.60
2022-08-26T19:35:15.101Z,1.40
2022-08-26T19:37:42.842Z,1.60
2022-08-26T19:40:11.507Z,1.70
2022-08-26T19:42:39.416Z,1.38
2022-08-26T19:45:20.199Z,1.40
2022-08-26T19:47:54.497Z,1.30
2022-08-26T19:50:22.588Z,1.33
2022-08-26T19:52:50.568Z,1.63
2022-08-26T19:55:19.590Z,1.40
2022-08-26T19:57:47.501Z,1.27
2022-08-26T20:00:19.113Z,1.60
2022-08-26T20:02:47.008Z,1.50
2022-08-26T20:05:17.017Z,1.27
2022-08-26T20:07:44.954Z,1.95
2022-08-26T20:10:14.349Z,1.80
2022-08-26T20:12:43.080Z,1.40
2022-08-26T20:15:12.926Z,2.00
2022-08-26T20:17:41.577Z,1.55
2022-08-26T20:20:33.256Z,1.60
2022-08-26T20:23:05.082Z,1.30
2022-08-26T20:25:33.462Z,1.50
2022-08-26T20:28:02.017Z,1.42
2022-08-26T20:30:29.886Z,1.27
2022-08-26T20:32:57.714Z,1.50
2022-08-26T20:35:25.567Z,1.55
2022-08-26T20:37:53.416Z,1.98
2022-08-26T20:40:22.920Z,1.58
2022-08-26T20:42:50.738Z,1.58
2022-08-26T20:45:18.678Z,1.52
2022-08-26T20:47:46.560Z,1.50
2022-08-26T20:50:14.468Z,1.75
2022-08-26T20:52:42.263Z,1.63
2022-08-26T20:55:10.747Z,1.70
2022-08-26T20:57:42.988Z,1.77
2022-08-26T21:00:14.165Z,1.20
2022-08-26T21:02:42.960Z,1.60
2022-08-26T21:05:11.045Z,1.60
2022-08-26T21:07:39.364Z,1.80
2022-08-26T21:10:07.763Z,1.27
2022-08-26T21:12:36.096Z,1.25
2022-08-26T21:15:07.309Z,1.20
2022-08-26T21:17:35.208Z,1.73
2022-08-26T21:20:03.417Z,1.67
2022-08-26T21:22:31.282Z,1.85
2022-08-26T21:24:59.112Z,1.65
2022-08-26T21:27:26.915Z,1.58
2022-08-26T21:29:55.960Z,1.58
2022-08-26T21:32:25.111Z,1.50
2022-08-26T21:34:55.588Z,1.67
2022-08-26T21:37:23.903Z,1.63
2022-08-26T21:39:54.270Z,1.77
2022-08-26T21:42:22.613Z,1.73
2022-08-26T21:44:52.748Z,1.60
2022-08-26T21:47:20.871Z,2.25
2022-08-26T21:49:50.291Z,1.45
2022-08-26T21:52:18.280Z,2.13
2022-08-26T21:54:49.467Z,1.90
2022-08-26T21:57:18.348Z,1.70
2022-08-26T21:59:46.207Z,1.88
2022-08-26T22:02:14.011Z,1.60
2022-08-26T22:04:45.631Z,1.45
2022-08-26T22:07:18.966Z,1.80
2022-08-26T22:09:46.819Z,1.55
2022-08-26T22:12:16.615Z,1.42
2022-08-26T22:14:45.386Z,1.70
2022-08-26T22:17:13.266Z,1.55
2022-08-26T22:19:45.934Z,1.45
2022-08-26T22:22:14.989Z,1.73
2022-08-26T22:24:44.448Z,1.10
2022-08-26T22:27:13.029Z,1.70
2022-08-26T22:29:40.979Z,1.38
2022-08-26T22:32:08.883Z,1.48
2022-08-26T22:34:36.693Z,1.40
2022-08-26T22:37:04.747Z,1.67
2022-08-26T22:39:33.051Z,1.40
2022-08-26T22:42:03.878Z,1.48
2022-08-26T22:44:32.681Z,1.38
2022-08-26T22:47:01.055Z,1.55
2022-08-26T22:49:28.899Z,1.30
2022-08-26T22:51:56.739Z,1.70
2022-08-26T22:54:26.542Z,1.58
2022-08-26T22:56:54.368Z,1.25
2022-08-26T22:59:23.614Z,1.75
2022-08-26T23:01:51.577Z,1.40
2022-08-26T23:04:20.020Z,2.13
2022-08-26T23:06:48.106Z,1.52
2022-08-26T23:09:17.965Z,1.42
2022-08-26T23:11:47.370Z,1.60
2022-08-26T23:14:15.299Z,1.80
2022-08-26T23:16:44.559Z,1.67
2022-08-26T23:19:14.678Z,1.15
2022-08-26T23:21:43.168Z,1.50
2022-08-26T23:24:11.885Z,1.48
2022-08-26T23:26:41.054Z,1.45
2022-08-26T23:29:10.807Z,1.60
2022-08-26T23:31:39.705Z,1.48
2022-08-26T23:34:26.914Z,1.48
2022-08-26T23:36:57.788Z,1.30
2022-08-26T23:39:26.525Z,1.38
2022-08-26T23:41:54.284Z,1.35
2022-08-26T23:44:22.352Z,1.63
2022-08-26T23:46:50.296Z,1.48
2022-08-26T23:49:19.464Z,1.67
2022-08-26T23:52:04.666Z,1.48
2022-08-26T23:54:33.453Z,2.47
2022-08-26T23:57:01.299Z,1.40
2022-08-26T23:59:29.230Z,1.80
